Time;durP1;ratioP1;P1;durP2;ratioP2;P2;SDS_P1;SDS_P2;PMS_P1;PMS_P2;Temp;Humidity;BMP_temperature;BMP_pressure;BME280_temperature;BME280_humidity;BME280_pressure;Samples;Min_cycle;Max_cycle;Signal;HPM_P1;HPM_P2
2021/12/08 00:00:32;;;;;;;13.52;5.47;;;;;;;3.55;100.00;99187.28;5016825;28;20033;-66
2021/12/08 00:02:59;;;;;;;10.57;5.07;;;;;;;3.65;100.00;99191.88;5020173;28;20384;-66
2021/12/08 00:05:25;;;;;;;11.40;5.10;;;;;;;3.53;100.00;99183.91;5017695;28;20037;-66
2021/12/08 00:07:51;;;;;;;16.92;5.88;;;;;;;3.75;100.00;99190.25;5019605;28;20025;-66
2021/12/08 00:10:50;;;;;;;13.73;5.50;;;;;;;3.45;100.00;99188.94;5017287;28;20048;-67
2021/12/08 00:13:09;;;;;;;9.52;5.57;;;;;;;3.55;100.00;99208.53;5016093;28;20033;-67
2021/12/08 00:15:40;;;;;;;16.50;4.93;;;;;;;3.42;100.00;99205.06;5014625;28;20022;-68
2021/12/08 00:18:08;;;;;;;15.23;5.03;;;;;;;3.54;100.00;99195.34;5015963;28;20044;-66
2021/12/08 00:20:34;;;;;;;9.23;4.43;;;;;;;3.55;100.00;99202.34;5018607;28;20128;-69
2021/12/08 00:23:00;;;;;;;11.20;5.00;;;;;;;3.44;100.00;99180.09;5015816;28;20531;-67
2021/12/08 00:25:26;;;;;;;8.65;4.32;;;;;;;3.40;100.00;99164.53;5013940;28;20029;-68
2021/12/08 00:27:52;;;;;;;13.52;5.32;;;;;;;3.54;100.00;99188.25;5020575;28;20034;-68
2021/12/08 00:30:17;;;;;;;7.72;4.32;;;;;;;3.69;100.00;99177.44;5013306;28;20025;-67
2021/12/08 00:32:44;;;;;;;7.45;3.88;;;;;;;3.44;100.00;99152.75;5013533;28;20034;-67
2021/12/08 00:35:10;;;;;;;8.88;5.22;;;;;;;3.51;100.00;99177.88;5018855;28;20030;-67
2021/12/08 00:37:35;;;;;;;9.98;5.40;;;;;;;3.71;100.00;99199.41;5018692;28;20037;-67
2021/12/08 00:40:02;;;;;;;10.60;5.13;;;;;;;3.73;100.00;99190.34;5017644;28;20415;-67
2021/12/08 00:42:27;;;;;;;8.32;4.28;;;;;;;3.59;100.00;99162.19;5022046;28;20483;-67
2021/12/08 00:44:53;;;;;;;12.55;4.15;;;;;;;3.61;100.00;99191.28;5018080;28;20084;-66
2021/12/08 00:47:18;;;;;;;11.65;4.78;;;;;;;3.64;100.00;99179.56;5017427;28;20049;-67
2021/12/08 00:49:46;;;;;;;6.13;3.30;;;;;;;3.68;100.00;99173.94;5014203;28;20472;-67
2021/12/08 00:52:13;;;;;;;13.52;6.20;;;;;;;3.62;100.00;99185.00;5016190;28;20492;-67
2021/12/08 00:54:39;;;;;;;9.48;4.30;;;;;;;3.64;100.00;99166.31;5017811;28;20033;-66
2021/12/08 00:57:04;;;;;;;7.95;5.35;;;;;;;3.71;100.00;99173.69;5020116;28;20499;-68
2021/12/08 00:59:29;;;;;;;10.27;4.68;;;;;;;3.61;100.00;99170.06;5018077;28;20033;-66
2021/12/08 01:01:57;;;;;;;13.55;4.93;;;;;;;3.75;100.00;99171.66;5018654;28;20040;-67
2021/12/08 01:04:23;;;;;;;12.80;4.65;;;;;;;3.75;100.00;99196.38;5022568;28;20483;-67
2021/12/08 01:06:48;;;;;;;11.48;5.95;;;;;;;3.87;100.00;99176.00;5015550;28;20075;-66
2021/12/08 01:09:16;;;;;;;12.48;6.03;;;;;;;3.79;100.00;99193.50;5024428;28;20149;-67
2021/12/08 01:11:41;;;;;;;14.88;6.30;;;;;;;3.94;100.00;99194.13;5019727;28;20091;-67
2021/12/08 01:14:07;;;;;;;14.13;6.18;;;;;;;4.09;100.00;99203.59;5021706;28;20468;-66
2021/12/08 01:16:32;;;;;;;4.10;2.47;;;;;;;3.91;100.00;99203.19;5018104;28;20025;-67
2021/12/08 01:18:57;;;;;;;13.40;6.95;;;;;;;4.13;100.00;99193.56;5022182;28;20732;-67
2021/12/08 01:21:23;;;;;;;9.20;5.57;;;;;;;4.00;100.00;99191.03;5016624;28;20080;-66
2021/12/08 01:23:49;;;;;;;15.05;4.45;;;;;;;3.92;100.00;99204.03;5019934;28;20065;-67
2021/12/08 01:26:14;;;;;;;9.30;4.95;;;;;;;4.03;100.00;99202.25;5018918;28;20050;-66
2021/12/08 01:28:40;;;;;;;6.88;4.00;;;;;;;3.84;100.00;99194.84;5019679;28;20041;-67
2021/12/08 01:31:05;;;;;;;9.50;4.57;;;;;;;3.89;100.00;99208.59;5016705;28;20030;-67
2021/12/08 01:33:33;;;;;;;8.95;4.75;;;;;;;3.93;100.00;99211.91;5016441;28;20052;-67
2021/12/08 01:35:58;;;;;;;9.40;5.03;;;;;;;4.10;100.00;99215.06;5014402;28;20014;-66
2021/12/08 01:38:24;;;;;;;11.45;4.20;;;;;;;4.01;100.00;99206.81;5022412;28;20029;-66
2021/12/08 01:40:52;;;;;;;5.28;2.97;;;;;;;4.08;100.00;99222.28;5015889;28;20033;-67
2021/12/08 01:43:27;;;;;;;5.25;2.90;;;;;;;4.00;100.00;99220.22;5014960;28;20025;-67
2021/12/08 01:46:04;;;;;;;10.73;3.88;;;;;;;4.04;100.00;99224.34;5020062;28;20056;-67
2021/12/08 01:48:32;;;;;;;14.05;5.93;;;;;;;4.07;100.00;99215.28;5016722;28;20331;-67
2021/12/08 01:51:18;;;;;;;11.88;4.82;;;;;;;4.17;100.00;99217.13;5018546;28;20820;-67
2021/12/08 01:53:46;;;;;;;12.32;5.57;;;;;;;4.29;100.00;99222.47;5015840;28;20046;-66
2021/12/08 01:56:12;;;;;;;7.78;3.75;;;;;;;4.08;100.00;99219.63;5018404;28;20025;-66
2021/12/08 01:58:38;;;;;;;9.88;5.55;;;;;;;4.29;100.00;99217.16;5020591;28;20463;-66
2021/12/08 02:01:06;;;;;;;7.53;3.55;;;;;;;4.23;100.00;99221.13;5015265;28;20040;-66
2021/12/08 02:03:33;;;;;;;10.48;4.95;;;;;;;4.18;100.00;99224.13;5017490;28;20087;-66
2021/12/08 02:05:59;;;;;;;15.32;6.60;;;;;;;4.37;100.00;99221.84;5014211;28;20133;-66
2021/12/08 02:08:26;;;;;;;13.75;6.07;;;;;;;4.37;100.00;99222.69;5014382;28;20536;-66
2021/12/08 02:10:51;;;;;;;16.45;7.55;;;;;;;4.35;100.00;99222.81;5012906;28;20029;-66
2021/12/08 02:13:16;;;;;;;6.88;2.65;;;;;;;4.35;100.00;99220.16;5015269;28;20048;-67
2021/12/08 02:15:42;;;;;;;15.40;5.38;;;;;;;4.49;100.00;99236.84;5015483;28;20034;-66
2021/12/08 02:18:11;;;;;;;7.70;4.43;;;;;;;4.34;100.00;99231.75;5013717;28;20029;-67
2021/12/08 02:20:37;;;;;;;11.05;6.07;;;;;;;4.57;100.00;99231.78;5011123;28;20049;-66
2021/12/08 02:23:02;;;;;;;11.07;5.82;;;;;;;4.44;100.00;99241.69;5013129;28;20155;-66
2021/12/08 02:25:28;;;;;;;11.07;5.43;;;;;;;4.53;100.00;99237.44;5014003;28;20033;-67
2021/12/08 02:27:56;;;;;;;7.55;3.97;;;;;;;4.40;100.00;99235.75;5017235;28;20065;-67
2021/12/08 02:30:45;;;;;;;8.57;4.57;;;;;;;4.49;100.00;99237.69;5014545;28;20029;-66
2021/12/08 02:49:24;;;;;;;12.60;4.15;;;;;;;5.18;100.00;99258.91;5021428;28;20030;-66
2021/12/08 02:51:51;;;;;;;6.80;2.92;;;;;;;5.07;100.00;99259.78;5020323;28;20076;-66
2021/12/08 02:54:17;;;;;;;5.53;2.70;;;;;;;5.23;100.00;99276.22;5015094;28;20036;-68
2021/12/08 02:56:43;;;;;;;7.18;3.25;;;;;;;5.27;100.00;99266.16;5018246;28;20553;-66
2021/12/08 02:59:08;;;;;;;3.67;2.08;;;;;;;5.13;100.00;99259.28;5017690;28;20041;-65
2021/12/08 03:01:35;;;;;;;6.95;2.25;;;;;;;5.07;100.00;99283.72;5018230;28;20493;-66
2021/12/08 03:04:01;;;;;;;9.63;3.17;;;;;;;5.16;100.00;99277.66;5015460;28;20033;-67
2021/12/08 03:06:26;;;;;;;6.63;3.20;;;;;;;5.12;100.00;99265.59;5014315;28;20059;-66
2021/12/08 03:08:51;;;;;;;4.13;2.33;;;;;;;5.06;100.00;99280.22;5011201;28;20037;-66
2021/12/08 03:11:17;;;;;;;7.03;1.98;;;;;;;5.17;100.00;99270.53;5009953;28;20807;-66
2021/12/08 03:13:49;;;;;;;6.95;2.65;;;;;;;5.35;100.00;99271.72;5013777;28;20468;-66
2021/12/08 03:16:15;;;;;;;4.05;1.77;;;;;;;5.02;100.00;99272.63;5011202;28;20030;-67
2021/12/08 03:18:41;;;;;;;5.93;2.38;;;;;;;5.23;100.00;99273.56;5015497;28;20075;-67
2021/12/08 03:21:08;;;;;;;5.18;2.35;;;;;;;5.08;100.00;99283.63;5009940;28;20117;-68
2021/12/08 03:23:49;;;;;;;7.68;2.28;;;;;;;4.82;100.00;99267.06;5015975;28;20025;-66
2021/12/08 03:26:14;;;;;;;3.10;2.15;;;;;;;4.87;100.00;99269.38;5014915;28;20065;-66
2021/12/08 03:28:48;;;;;;;4.22;2.30;;;;;;;5.06;100.00;99298.84;5012379;28;20048;-67
2021/12/08 03:31:18;;;;;;;7.72;2.80;;;;;;;5.37;100.00;99279.56;5016481;28;20490;-66
2021/12/08 03:33:44;;;;;;;5.95;1.92;;;;;;;5.28;100.00;99283.81;5014952;28;20556;-65
2021/12/08 03:36:10;;;;;;;10.35;2.47;;;;;;;5.14;100.00;99271.63;5010105;28;20029;-66
2021/12/08 03:38:36;;;;;;;5.22;2.35;;;;;;;5.13;100.00;99295.72;5008646;28;20056;-67
2021/12/08 03:41:03;;;;;;;11.45;2.88;;;;;;;5.31;100.00;99304.00;5007692;28;20029;-66
2021/12/08 03:43:29;;;;;;;6.55;2.13;;;;;;;5.16;100.00;99306.09;5014929;28;20112;-66
2021/12/08 03:45:56;;;;;;;4.45;2.15;;;;;;;5.21;100.00;99304.75;5012305;28;21050;-67
2021/12/08 03:48:39;;;;;;;13.02;2.85;;;;;;;5.42;100.00;99292.53;5008898;28;20653;-66
2021/12/08 03:51:04;;;;;;;9.70;2.58;;;;;;;5.34;100.00;99301.97;5018324;28;20053;-66
2021/12/08 03:53:30;;;;;;;11.48;3.42;;;;;;;5.64;100.00;99305.78;5019085;28;20021;-66
2021/12/08 03:55:55;;;;;;;11.10;2.63;;;;;;;5.44;100.00;99298.53;4998919;28;20022;-66
2021/12/08 03:58:21;;;;;;;7.20;2.55;;;;;;;5.66;100.00;99290.50;5011657;28;20036;-66
2021/12/08 04:00:49;;;;;;;6.50;2.13;;;;;;;5.35;100.00;99301.00;5013159;28;20041;-66
2021/12/08 04:03:14;;;;;;;9.10;2.90;;;;;;;5.62;100.00;99312.19;5011658;28;20029;-65
2021/12/08 04:06:06;;;;;;;10.52;3.38;;;;;;;5.60;100.00;99308.78;5010986;28;20057;-67
2021/12/08 04:08:39;;;;;;;5.10;2.25;;;;;;;5.21;100.00;99291.47;5016414;28;20527;-66
2021/12/08 04:11:05;;;;;;;7.97;2.15;;;;;;;5.50;100.00;99300.72;5016561;28;20041;-66
2021/12/08 04:13:49;;;;;;;6.40;2.47;;;;;;;5.00;100.00;99309.97;5010964;28;20485;-66
2021/12/08 04:16:19;;;;;;;5.88;2.00;;;;;;;4.95;100.00;99315.66;5014194;28;20033;-66
2021/12/08 04:18:45;;;;;;;12.60;3.00;;;;;;;5.00;100.00;99301.16;5008885;28;20069;-67
2021/12/08 04:21:12;;;;;;;7.20;1.92;;;;;;;4.88;100.00;99324.25;5016413;28;20825;-67
2021/12/08 04:23:40;;;;;;;7.00;2.10;;;;;;;4.94;100.00;99323.75;5018708;28;20037;-66
2021/12/08 04:26:09;;;;;;;8.27;2.28;;;;;;;4.85;100.00;99335.13;5018346;28;20468;-66
2021/12/08 04:28:34;;;;;;;8.88;2.35;;;;;;;4.83;100.00;99334.41;5012952;28;20038;-66
2021/12/08 04:31:05;;;;;;;6.55;1.98;;;;;;;4.79;100.00;99316.03;5008310;28;20540;-66
2021/12/08 04:33:32;;;;;;;6.25;1.77;;;;;;;4.63;100.00;99329.66;5017683;28;20266;-66
2021/12/08 04:35:58;;;;;;;8.00;2.33;;;;;;;4.73;100.00;99332.44;5016923;28;20017;-67
2021/12/08 04:38:31;;;;;;;8.57;2.55;;;;;;;4.80;100.00;99333.66;5012612;28;20029;-66
2021/12/08 04:41:06;;;;;;;6.88;2.25;;;;;;;4.79;100.00;99337.28;5015585;28;20037;-66
2021/12/08 04:44:21;;;;;;;16.05;3.20;;;;;;;5.00;100.00;99338.41;5012442;28;20056;-65
2021/12/08 04:52:02;;;;;;;8.82;2.17;;;;;;;4.60;100.00;99337.03;5013388;28;20041;-66
2021/12/08 05:06:20;;;;;;;11.00;2.58;;;;;;;4.14;100.00;99330.75;5016758;28;20389;-65
2021/12/08 05:08:48;;;;;;;11.00;2.75;;;;;;;4.40;100.00;99328.75;5024827;28;20365;-66
2021/12/08 05:11:23;;;;;;;6.53;2.28;;;;;;;4.14;100.00;99338.72;5023066;28;20074;-66
2021/12/08 05:13:49;;;;;;;;;;;;;;;4.22;100.00;99346.09;5020828;28;20033;-66
2021/12/08 05:16:17;;;;;;;6.68;2.00;;;;;;;4.13;100.00;99363.59;5013311;28;20757;-66
2021/12/08 05:18:46;;;;;;;12.82;2.45;;;;;;;4.31;100.00;99364.84;5019322;28;20029;-65
2021/12/08 05:21:18;;;;;;;10.80;2.83;;;;;;;4.65;99.67;99372.91;5016402;28;20410;-66
2021/12/08 05:23:48;;;;;;;10.95;3.03;;;;;;;4.75;98.61;99375.72;5015126;28;20030;-66
2021/12/08 05:26:24;;;;;;;3.83;1.63;;;;;;;4.28;99.40;99375.69;5013066;28;20030;-66
2021/12/08 05:28:52;;;;;;;6.10;2.20;;;;;;;4.40;99.14;99365.97;5016545;28;20021;-66
2021/12/08 05:31:24;;;;;;;16.10;3.00;;;;;;;4.57;99.49;99383.28;5014607;28;20025;-66
2021/12/08 05:33:51;;;;;;;8.60;2.78;;;;;;;4.46;98.12;99380.63;5012812;28;20587;-66
2021/12/08 05:36:18;;;;;;;13.50;2.33;;;;;;;4.53;98.37;99383.66;5014936;28;20017;-66
2021/12/08 05:38:43;;;;;;;10.50;2.47;;;;;;;4.45;98.43;99393.03;5017148;28;20029;-67
2021/12/08 05:41:20;;;;;;;9.63;1.92;;;;;;;4.57;97.11;99390.44;5014828;28;20041;-65
2021/12/08 05:43:47;;;;;;;7.50;2.17;;;;;;;4.54;97.03;99388.00;5012460;28;20072;-66
2021/12/08 05:46:13;;;;;;;9.95;2.47;;;;;;;4.58;97.52;99386.81;5009787;28;20472;-66
2021/12/08 05:48:39;;;;;;;6.57;2.35;;;;;;;4.73;96.14;99388.28;5016016;28;20037;-65
2021/12/08 05:51:07;;;;;;;11.75;2.70;;;;;;;4.48;96.82;99395.47;5007487;28;20029;-66
2021/12/08 05:53:34;;;;;;;6.75;1.73;;;;;;;4.39;97.75;99382.03;5010491;28;20061;-66
2021/12/08 05:56:00;;;;;;;7.75;1.98;;;;;;;4.55;97.76;99397.66;5012590;28;20029;-65
2021/12/08 05:58:28;;;;;;;9.30;2.13;;;;;;;4.71;96.48;99397.34;5011287;28;20029;-66
2021/12/08 06:00:53;;;;;;;9.35;2.15;;;;;;;4.90;95.55;99402.09;5006813;28;20034;-66
2021/12/08 06:03:19;;;;;;;4.70;1.45;;;;;;;4.52;95.95;99397.91;5008829;28;20048;-66
2021/12/08 06:05:46;;;;;;;8.23;1.80;;;;;;;4.75;95.86;99404.13;5003793;28;20033;-66
2021/12/08 06:08:12;;;;;;;7.97;1.30;;;;;;;4.42;95.36;99403.06;5007085;28;20033;-66
2021/12/08 06:10:38;;;;;;;7.32;2.05;;;;;;;4.48;96.09;99405.25;5010571;28;20041;-65
2021/12/08 06:13:06;;;;;;;9.52;2.00;;;;;;;4.39;95.27;99403.28;5013075;28;20029;-66
2021/12/08 06:15:32;;;;;;;9.98;2.47;;;;;;;4.68;95.04;99409.06;5010266;28;20021;-66
2021/12/08 06:17:58;;;;;;;12.02;2.40;;;;;;;4.41;95.22;99415.50;5008444;28;20059;-66
2021/12/08 06:20:24;;;;;;;9.50;2.13;;;;;;;4.40;95.92;99405.81;5010583;28;20034;-66
2021/12/08 06:22:52;;;;;;;14.80;2.78;;;;;;;4.78;95.07;99412.72;5016042;28;20085;-67
2021/12/08 06:25:18;;;;;;;14.45;2.85;;;;;;;4.69;95.00;99433.84;5010230;28;20035;-66
2021/12/08 06:27:43;;;;;;;6.65;1.48;;;;;;;4.45;95.96;99437.38;5013918;28;20398;-66
2021/12/08 06:30:12;;;;;;;12.70;2.53;;;;;;;4.46;96.13;99423.13;5014199;28;20025;-66
2021/12/08 06:32:38;;;;;;;10.20;2.78;;;;;;;4.71;94.72;99430.09;5012652;28;20052;-66
2021/12/08 06:35:07;;;;;;;12.90;2.63;;;;;;;4.61;95.07;99440.56;5012998;28;20033;-67
2021/12/08 06:37:38;;;;;;;10.95;2.35;;;;;;;4.52;94.90;99424.47;5014283;28;20033;-66
2021/12/08 06:40:09;;;;;;;13.23;2.55;;;;;;;4.80;94.88;99452.47;5013284;28;20346;-65
2021/12/08 06:42:38;;;;;;;9.05;2.20;;;;;;;4.71;94.83;99443.38;5017720;28;20040;-65
2021/12/08 06:45:07;;;;;;;11.95;2.45;;;;;;;4.67;94.63;99447.22;5015904;28;20067;-66
2021/12/08 06:47:33;;;;;;;13.02;2.30;;;;;;;4.58;93.91;99440.81;5010309;28;20029;-67
2021/12/08 06:50:03;;;;;;;8.02;1.55;;;;;;;4.35;94.77;99431.91;5014891;28;20021;-66
2021/12/08 06:52:32;;;;;;;8.73;2.22;;;;;;;4.57;93.28;99452.41;5020636;28;20510;-65
2021/12/08 06:55:09;;;;;;;9.30;2.80;;;;;;;4.88;91.90;99454.56;5015023;28;20045;-66
2021/12/08 06:57:51;;;;;;;11.52;2.40;;;;;;;4.34;93.14;99454.13;5016353;28;20025;-66
2021/12/08 07:00:23;;;;;;;9.32;2.80;;;;;;;4.37;94.11;99450.41;5014587;28;20023;-65
2021/12/08 07:03:01;;;;;;;8.40;2.08;;;;;;;4.30;93.82;99452.66;5015109;28;20034;-65
2021/12/08 07:05:52;;;;;;;12.77;2.88;;;;;;;4.61;92.10;99447.72;5018263;28;20044;-65
2021/12/08 07:08:16;;;;;;;11.82;2.35;;;;;;;4.49;92.92;99446.84;5014441;28;20071;-65
2021/12/08 07:10:47;;;;;;;16.85;3.65;;;;;;;4.49;93.20;99445.00;5014648;28;20519;-65
2021/12/08 07:13:17;;;;;;;12.73;3.80;;;;;;;4.85;92.09;99438.84;5013606;28;20060;-65
2021/12/08 07:15:47;;;;;;;11.00;2.80;;;;;;;4.44;92.39;99431.22;5009973;28;20108;-65
2021/12/08 07:18:24;;;;;;;10.55;3.58;;;;;;;4.53;92.15;99452.75;5011923;28;20057;-66
2021/12/08 07:20:56;;;;;;;10.80;2.00;;;;;;;4.20;93.80;99474.59;5009526;28;20112;-66
2021/12/08 07:23:27;;;;;;;12.90;2.65;;;;;;;4.46;92.38;99463.84;5016693;28;20057;-66
2021/12/08 07:25:56;;;;;;;10.25;3.20;;;;;;;4.30;92.23;99473.91;5010437;28;20050;-65
2021/12/08 07:28:23;;;;;;;14.50;3.35;;;;;;;4.44;92.17;99489.69;5016063;28;20029;-66
2021/12/08 07:31:01;;;;;;;12.40;3.47;;;;;;;4.29;92.05;99489.00;5012123;28;20710;-66
2021/12/08 07:33:27;;;;;;;10.00;3.03;;;;;;;4.05;93.31;99503.09;5014004;28;20018;-66
2021/12/08 07:35:55;;;;;;;12.48;3.30;;;;;;;4.03;93.67;99485.59;5015829;28;20029;-66
2021/12/08 07:38:23;;;;;;;14.98;2.38;;;;;;;4.09;92.72;99503.75;5017142;28;20030;-66
2021/12/08 07:41:09;;;;;;;10.60;3.10;;;;;;;3.87;93.98;99509.75;5014133;28;20056;-67
2021/12/08 07:43:48;;;;;;;17.17;3.42;;;;;;;3.80;95.09;99512.00;5011145;28;20122;-66
2021/12/08 07:46:26;;;;;;;8.15;2.65;;;;;;;4.00;94.05;99496.44;5014185;28;20053;-66
2021/12/08 07:48:56;;;;;;;12.82;2.80;;;;;;;3.94;93.91;99503.06;5018595;28;20718;-65
2021/12/08 07:51:27;;;;;;;14.90;3.30;;;;;;;3.84;94.86;99518.75;5013909;28;20404;-66
2021/12/08 07:53:53;;;;;;;9.38;2.78;;;;;;;3.95;94.44;99530.44;5016314;28;20025;-66
2021/12/08 07:56:21;;;;;;;12.75;2.60;;;;;;;4.02;93.97;99511.28;5014182;28;20029;-67
2021/12/08 07:58:51;;;;;;;7.90;1.67;;;;;;;3.62;94.96;99524.75;5012578;28;20084;-66
2021/12/08 08:01:28;;;;;;;7.38;2.35;;;;;;;3.59;95.16;99509.03;5011570;28;20025;-67
2021/12/08 08:03:54;;;;;;;12.95;2.78;;;;;;;3.71;94.62;99520.59;5013206;28;22421;-65
2021/12/08 08:06:28;;;;;;;14.25;3.33;;;;;;;4.47;92.36;99520.53;5013360;28;20029;-65
2021/12/08 08:08:53;;;;;;;13.25;2.55;;;;;;;3.99;93.31;99526.63;5014710;28;20030;-66
2021/12/08 08:11:42;;;;;;;11.32;2.55;;;;;;;3.97;94.19;99523.22;5016011;28;20733;-64
2021/12/08 08:14:10;;;;;;;6.78;2.20;;;;;;;3.85;94.96;99524.94;5012817;28;20110;-66
2021/12/08 08:16:38;;;;;;;11.90;3.30;;;;;;;4.10;93.54;99524.06;5013348;28;20097;-65
2021/12/08 08:19:10;;;;;;;8.85;2.45;;;;;;;4.34;93.02;99536.50;5014362;28;20083;-65
2021/12/08 08:21:40;;;;;;;11.02;3.17;;;;;;;4.42;91.12;99512.03;5014248;28;20116;-65
2021/12/08 08:24:06;;;;;;;12.35;3.22;;;;;;;4.44;91.99;99537.53;5013634;28;20052;-66
2021/12/08 08:26:32;;;;;;;13.43;2.88;;;;;;;4.43;91.86;99524.34;5014003;28;20476;-67
2021/12/08 08:28:58;;;;;;;16.20;3.15;;;;;;;4.49;91.31;99553.16;5014390;28;20030;-66
2021/12/08 08:31:29;;;;;;;12.02;3.13;;;;;;;4.56;91.05;99543.75;5014722;28;20040;-65
2021/12/08 08:33:55;;;;;;;7.25;2.22;;;;;;;4.19;93.05;99547.28;5011671;28;20029;-64
2021/12/08 08:36:26;;;;;;;14.02;2.53;;;;;;;4.17;92.55;99557.16;5009174;28;20026;-66
2021/12/08 08:39:00;;;;;;;5.10;2.13;;;;;;;4.29;91.50;99562.56;5013263;28;20018;-65
2021/12/08 08:41:48;;;;;;;;;;;;;;;4.27;90.97;99557.34;5014764;28;20057;-65
2021/12/08 08:44:21;;;;;;;8.57;1.75;;;;;;;4.17;91.74;99564.28;5012099;28;19929;-65
2021/12/08 08:46:48;;;;;;;10.60;2.63;;;;;;;4.27;90.62;99541.41;5017461;28;20065;-65
2021/12/08 08:49:18;;;;;;;9.18;2.90;;;;;;;4.54;89.32;99558.13;5018160;28;20445;-65
2021/12/08 08:51:48;;;;;;;14.85;3.58;;;;;;;4.55;90.21;99541.22;5017228;28;20029;-66
2021/12/08 08:54:20;;;;;;;8.10;2.45;;;;;;;4.50;89.87;99542.41;5013781;28;20038;-64
2021/12/08 08:56:53;;;;;;;11.75;2.90;;;;;;;4.37;90.16;99538.91;5019239;28;20026;-66
2021/12/08 08:59:26;;;;;;;14.40;3.25;;;;;;;4.42;90.12;99549.25;5021884;28;20100;-66
2021/12/08 09:01:53;;;;;;;5.53;2.25;;;;;;;4.20;91.31;99546.31;5014706;28;20034;-64
2021/12/08 09:04:28;;;;;;;8.50;2.40;;;;;;;4.40;90.09;99537.88;5016028;28;20080;-65
2021/12/08 09:06:56;;;;;;;12.00;3.08;;;;;;;4.50;89.24;99536.25;5015223;28;20455;-66
2021/12/08 09:09:26;;;;;;;6.43;2.60;;;;;;;4.62;88.25;99545.13;5015927;28;20195;-66
2021/12/08 09:11:55;;;;;;;9.80;2.72;;;;;;;4.31;90.35;99542.88;4999325;28;20116;-66
2021/12/08 09:14:25;;;;;;;10.88;2.22;;;;;;;4.39;89.22;99544.97;5019436;28;20059;-66
2021/12/08 09:16:58;;;;;;;9.15;2.58;;;;;;;4.52;89.18;99534.28;5016166;28;20022;-65
2021/12/08 09:19:31;;;;;;;9.48;2.70;;;;;;;4.97;86.16;99548.78;5017041;28;20124;-66
2021/12/08 09:22:01;;;;;;;6.45;2.50;;;;;;;5.04;86.12;99552.66;5020351;28;20030;-65
2021/12/08 09:24:34;;;;;;;8.85;3.17;;;;;;;5.40;85.21;99541.03;5016061;28;20079;-65
2021/12/08 09:27:01;;;;;;;5.43;3.10;;;;;;;5.48;84.51;99556.41;5019155;28;20535;-66
2021/12/08 09:29:43;;;;;;;8.50;2.53;;;;;;;5.38;84.31;99563.41;5015576;28;20049;-65
2021/12/08 09:32:17;;;;;;;8.57;2.78;;;;;;;5.60;84.00;99575.06;5012647;28;20033;-65
2021/12/08 09:34:54;;;;;;;7.75;2.90;;;;;;;5.79;82.30;99577.13;5016407;28;20039;-65
2021/12/08 09:37:21;;;;;;;11.65;3.70;;;;;;;6.07;81.94;99581.19;5016732;28;20033;-66
2021/12/08 09:39:53;;;;;;;11.25;2.95;;;;;;;6.02;81.12;99580.72;5015367;28;20037;-66
2021/12/08 09:42:29;;;;;;;12.73;2.38;;;;;;;5.89;82.14;99587.91;5014313;28;20460;-67
2021/12/08 09:45:00;;;;;;;10.02;3.17;;;;;;;6.23;81.03;99586.13;5017326;28;20545;-66
2021/12/08 09:47:29;;;;;;;5.18;2.47;;;;;;;6.41;78.40;99583.81;5017863;28;20034;-66
2021/12/08 09:49:57;;;;;;;6.03;2.30;;;;;;;6.81;77.78;99568.22;5018371;28;20032;-64
2021/12/08 09:52:27;;;;;;;11.10;3.10;;;;;;;6.68;77.72;99568.38;5014916;28;20083;-66
2021/12/08 09:54:54;;;;;;;11.32;2.60;;;;;;;7.19;76.58;99585.50;5014608;28;20057;-66
2021/12/08 09:57:19;;;;;;;6.55;1.90;;;;;;;6.50;77.16;99558.22;5012364;28;20028;-65
2021/12/08 09:59:47;;;;;;;8.05;2.53;;;;;;;6.95;76.90;99575.91;5011228;28;20025;-65
2021/12/08 10:02:24;;;;;;;9.68;2.60;;;;;;;7.15;74.63;99568.91;5016926;28;20059;-65
2021/12/08 10:04:50;;;;;;;6.60;2.33;;;;;;;7.32;74.09;99538.13;5021597;28;20096;-73
2021/12/08 10:07:18;;;;;;;11.40;2.55;;;;;;;7.26;74.39;99546.66;5016631;28;20037;-72
2021/12/08 10:09:43;;;;;;;12.00;2.90;;;;;;;7.32;74.36;99548.81;5014671;28;20041;-73
2021/12/08 10:26:33;;;;;;;9.32;2.83;;;;;;;8.54;69.37;99534.69;5172364;27;20404;-66
2021/12/08 10:29:01;;;;;;;8.00;3.08;;;;;;;8.44;69.78;99527.59;5159034;27;20053;-65
2021/12/08 10:31:31;;;;;;;10.10;2.50;;;;;;;7.84;71.88;99505.22;5150046;27;20099;-66
2021/12/08 10:34:20;;;;;;;6.72;2.25;;;;;;;8.62;70.14;99522.47;5156448;27;20038;-65
2021/12/08 10:36:49;;;;;;;12.25;2.70;;;;;;;8.88;68.80;99513.88;5155441;27;20071;-66
2021/12/08 10:39:20;;;;;;;7.22;2.42;;;;;;;8.61;69.66;99510.91;5174886;27;20552;-66
2021/12/08 10:41:50;;;;;;;7.93;2.28;;;;;;;8.08;71.29;99520.06;5178483;27;20033;-65
2021/12/08 10:44:39;;;;;;;3.70;2.08;;;;;;;8.30;70.27;99510.13;5156624;27;20065;-65
2021/12/08 10:47:07;;;;;;;6.60;2.40;;;;;;;8.89;68.11;99494.97;5151499;27;20030;-65
2021/12/08 10:54:48;;;;;;;5.55;2.42;;;;;;;7.88;72.50;99525.34;5154553;27;20033;-66
2021/12/08 10:57:33;;;;;;;7.38;2.30;;;;;;;8.39;70.27;99522.69;5172247;27;20668;-65
2021/12/08 11:00:11;;;;;;;13.65;3.03;;;;;;;7.93;72.33;99527.59;5172563;27;20026;-66
2021/12/08 11:02:51;;;;;;;12.68;2.83;;;;;;;7.59;73.41;99546.56;5172888;27;20027;-64
2021/12/08 11:05:26;;;;;;;7.07;2.20;;;;;;;7.19;74.59;99550.81;5158582;27;20014;-66
2021/12/08 11:08:08;;;;;;;7.28;2.30;;;;;;;7.35;74.42;99537.00;5172586;27;20030;-65
2021/12/08 11:10:50;;;;;;;7.78;2.60;;;;;;;7.64;72.38;99544.34;5169855;27;20014;-66
2021/12/08 11:13:18;;;;;;;5.30;1.98;;;;;;;7.43;72.68;99550.56;5173731;27;20026;-66
2021/12/08 11:15:45;;;;;;;7.93;2.42;;;;;;;7.33;74.41;99552.31;5160567;27;20033;-65
2021/12/08 11:18:22;;;;;;;7.72;2.70;;;;;;;7.31;74.36;99564.94;5154567;27;20041;-66
2021/12/08 11:21:02;;;;;;;6.78;2.33;;;;;;;7.08;74.67;99557.03;5171133;27;20109;-65
2021/12/08 11:23:41;;;;;;;6.43;2.63;;;;;;;7.15;75.10;99568.91;5172094;27;20129;-65
2021/12/08 11:26:18;;;;;;;8.82;2.55;;;;;;;6.95;74.91;99548.38;5162096;27;20018;-65
2021/12/08 11:28:51;;;;;;;5.88;1.85;;;;;;;6.80;77.36;99583.34;5138035;27;20068;-66
2021/12/08 11:31:17;;;;;;;6.80;2.38;;;;;;;7.15;75.03;99568.91;5159739;27;20777;-65
2021/12/08 11:33:48;;;;;;;8.93;2.65;;;;;;;7.26;74.33;99583.19;5141822;27;20035;-66
2021/12/08 11:36:19;;;;;;;9.10;2.40;;;;;;;6.69;78.74;99597.56;5140778;27;20034;-66
2021/12/08 11:38:48;;;;;;;8.20;2.45;;;;;;;6.81;76.31;99594.88;5156765;27;20027;-66
2021/12/08 11:41:35;;;;;;;7.45;2.28;;;;;;;6.66;77.52;99588.97;5152195;27;20022;-66
2021/12/08 11:44:05;;;;;;;8.98;2.58;;;;;;;6.72;76.50;99589.31;5144650;27;20041;-65
2021/12/08 11:46:37;;;;;;;11.43;2.70;;;;;;;6.49;78.78;99614.34;5157024;27;20022;-66
2021/12/08 11:51:31;;;;;;;8.48;2.60;;;;;;;6.43;79.93;99608.53;5159888;27;20027;-65
2021/12/08 11:53:57;;;;;;;4.47;1.90;;;;;;;6.21;81.23;99617.41;5143645;27;20031;-66
2021/12/08 11:56:38;;;;;;;9.32;2.10;;;;;;;6.19;80.74;99621.16;5153081;27;20070;-65
2021/12/08 11:59:06;;;;;;;5.07;2.40;;;;;;;6.49;79.35;99615.19;5152687;27;20026;-65
2021/12/08 12:01:32;;;;;;;7.95;2.72;;;;;;;6.43;79.42;99605.03;5160811;27;20026;-64
2021/12/08 12:03:57;;;;;;;5.47;2.05;;;;;;;5.94;80.19;99625.72;5157911;27;20030;-65
2021/12/08 12:06:28;;;;;;;7.22;2.30;;;;;;;6.02;80.69;99625.13;5159272;27;20018;-65
2021/12/08 12:08:55;;;;;;;6.93;2.33;;;;;;;6.35;79.42;99616.31;5157796;27;20023;-66
2021/12/08 12:11:24;;;;;;;9.02;2.97;;;;;;;6.06;79.85;99627.47;5160651;27;20015;-66
2021/12/08 12:13:50;;;;;;;10.02;3.15;;;;;;;6.51;78.82;99631.91;5159212;27;20125;-65
2021/12/08 12:16:15;;;;;;;8.43;2.92;;;;;;;6.22;80.56;99640.44;5138364;27;20038;-65
2021/12/08 12:18:41;;;;;;;6.78;1.77;;;;;;;5.88;81.21;99642.16;5144703;27;20026;-65
2021/12/08 12:21:19;;;;;;;7.05;2.47;;;;;;;5.90;82.68;99637.56;5128256;27;20050;-66
2021/12/08 12:24:13;;;;;;;7.70;2.28;;;;;;;6.24;80.80;99634.97;5139674;27;20025;-66
2021/12/08 12:26:53;;;;;;;10.18;2.85;;;;;;;6.08;81.35;99649.50;5141140;27;20105;-65
2021/12/08 12:29:36;;;;;;;7.72;2.75;;;;;;;5.98;81.66;99635.16;5161485;27;20751;-65
2021/12/08 12:32:23;;;;;;;3.42;1.80;;;;;;;5.84;82.94;99665.53;5155236;27;20026;-65
2021/12/08 12:34:53;;;;;;;7.03;2.20;;;;;;;5.88;82.15;99648.34;5140367;27;20855;-66
2021/12/08 12:37:21;;;;;;;6.50;2.10;;;;;;;5.82;83.64;99671.00;5156061;27;20030;-65
2021/12/08 12:39:48;;;;;;;7.05;2.63;;;;;;;5.88;84.19;99668.81;5153902;27;20034;-65
2021/12/08 12:42:15;;;;;;;8.55;2.97;;;;;;;6.02;82.23;99670.44;5153188;27;20018;-65
2021/12/08 12:44:45;;;;;;;6.97;2.92;;;;;;;5.82;84.02;99675.47;5161063;27;20018;-65